Aviation Digital Data Service (ADDS)

Output produced by METARs form (1201 UTC 24 February 2018)
found at http://www.aviationweather.gov/adds/metars/
 
TAF SMJP 241000Z 2412/2512 06010KT 9999 SCT020 TX31/2418Z TN22/2510Z 
     BECMG 2422/2500 04006KT CAVOK 
     PROB30 
     TEMPO 2509/2510 00000KT 2000 BR SCT002